Clarksville, New York
Current Conditions -  °F | °C
As of 11:01 AM on Friday 24 Oct 2014 (Local Time) from KALB Reporting Station
Light Rain Light Rain  
Wind Chill: 43°   Ceiling: 600
Heat Index: 46°   Visibility: 3mi
Dew Point: 43°   Wind: 6mph
Humidity: 89%   Direction: 60°ENE
Pressure: 29.86"   Gusts: NA
Location:  42.58°N, 73.96°W
Report Text: KALB 241501Z 06005KT 3SM -RA BR BKN006 OVC013 08/06 A2986 RMK AO2 CIG 004V008 P0001 T00780061
Loading
Personal Weather Stations






























Interactive Weather Map
Tropical Storm Tracking
New forecast layout! Learn more

10-Day Weather Forecast

Advertisements
Track Severe Weather on mobile